Time;durP1;ratioP1;P1;durP2;ratioP2;P2;SDS_P1;SDS_P2;PMS_P1;PMS_P2;Temp;Humidity;BMP_temperature;BMP_pressure;BME280_temperature;BME280_humidity;BME280_pressure;Samples;Min_cycle;Max_cycle;Signal;HPM_P1;HPM_P2
2022/05/31 00:00:28;;;;;;;0.40;0.40;;;12.40;99.90;12.60;101158.00;;;;5137951;27;20220;-64
2022/05/31 00:02:56;;;;;;;0.40;0.40;;;12.50;99.90;12.50;101116.00;;;;5155868;27;20176;-64
2022/05/31 00:05:22;;;;;;;0.40;0.40;;;12.40;99.90;12.50;101152.00;;;;5138017;27;20195;-63
2022/05/31 00:07:48;;;;;;;0.40;0.40;;;12.50;99.90;12.50;101145.00;;;;5156183;27;20187;-64
2022/05/31 00:10:15;;;;;;;0.40;0.40;;;12.40;99.90;12.40;101161.00;;;;5156392;27;20190;-64
2022/05/31 00:12:42;;;;;;;0.40;0.40;;;12.40;99.90;12.40;101145.00;;;;5156183;27;20215;-63
2022/05/31 00:15:11;;;;;;;0.60;0.60;;;12.30;99.90;13.00;101156.00;;;;5156559;27;20722;-63
2022/05/31 00:17:37;;;;;;;0.40;0.40;;;12.60;99.90;12.70;101152.00;;;;5155826;27;20190;-63
2022/05/31 00:20:05;;;;;;;0.40;0.40;;;12.60;99.90;12.90;101149.00;;;;5156357;27;20191;-64
2022/05/31 00:22:34;;;;;;;0.37;0.37;;;12.70;99.90;12.70;101131.00;;;;5156365;27;20205;-63
2022/05/31 00:25:01;;;;;;;0.40;0.40;;;12.60;99.90;12.80;101154.00;;;;5137537;27;20274;-61
2022/05/31 00:27:28;;;;;;;0.50;0.50;;;12.70;99.90;12.60;101151.00;;;;5156291;27;20277;-61
2022/05/31 00:29:54;;;;;;;0.40;0.40;;;12.60;99.90;12.60;101149.00;;;;5155845;27;20190;-61
2022/05/31 00:32:25;;;;;;;0.50;0.50;;;12.50;99.90;12.70;101120.00;;;;5155506;27;20665;-61
2022/05/31 00:34:54;;;;;;;0.40;0.40;;;12.70;99.90;12.10;101139.00;;;;5137218;27;20194;-61
2022/05/31 00:37:21;;;;;;;0.40;0.40;;;12.50;99.90;11.90;101129.00;;;;5156248;27;20519;-63
2022/05/31 00:39:47;;;;;;;0.40;0.40;;;12.20;99.90;12.00;101134.00;;;;5155796;27;20187;-63
2022/05/31 00:42:17;;;;;;;0.40;0.40;;;12.20;99.90;11.80;101129.00;;;;5155831;27;20198;-63
2022/05/31 00:44:43;;;;;;;1.07;1.07;;;12.10;99.90;12.20;101135.00;;;;5155638;27;20243;-63
2022/05/31 00:47:25;;;;;;;0.40;0.40;;;12.10;99.90;12.10;101128.00;;;;5155699;27;20276;-63
2022/05/31 00:49:57;;;;;;;0.50;0.50;;;12.20;99.90;12.20;101139.00;;;;5137237;27;20191;-64
2022/05/31 00:52:52;;;;;;;0.50;0.50;;;12.20;99.90;12.20;101127.00;;;;5137431;27;20199;-61
2022/05/31 00:55:26;;;;;;;0.40;0.40;;;12.30;99.90;11.90;101125.00;;;;5151202;27;20191;-63
2022/05/31 00:58:05;;;;;;;0.40;0.40;;;12.10;99.90;12.40;101112.00;;;;5137198;27;20552;-64
2022/05/31 01:00:30;;;;;;;0.40;0.40;;;12.40;99.90;12.20;101118.00;;;;5137205;27;20192;-64
2022/05/31 01:02:59;;;;;;;0.50;0.50;;;12.30;99.90;12.30;101118.00;;;;5136838;27;20190;-64
2022/05/31 01:05:26;;;;;;;0.50;0.50;;;12.30;99.90;12.10;101125.00;;;;5136830;27;20232;-64
2022/05/31 01:07:53;;;;;;;0.50;0.50;;;12.20;99.90;11.80;101089.00;;;;5155465;27;20232;-62
2022/05/31 01:10:19;;;;;;;0.50;0.50;;;12.00;99.90;11.80;101067.00;;;;5155175;27;20188;-63
2022/05/31 01:12:48;;;;;;;0.40;0.40;;;12.00;99.90;12.00;101113.00;;;;5155314;27;20552;-64
2022/05/31 01:15:16;;;;;;;0.50;0.50;;;12.10;99.90;12.30;101103.00;;;;5136687;27;20273;-63
2022/05/31 01:17:43;;;;;;;0.40;0.40;;;12.10;99.90;12.10;101093.00;;;;5155115;27;20697;-64
2022/05/31 01:20:12;;;;;;;0.40;0.40;;;12.20;99.90;12.00;101120.00;;;;5155353;27;20530;-63
2022/05/31 01:22:46;;;;;;;0.50;0.50;;;12.10;99.90;12.00;101106.00;;;;5155416;27;20181;-63
2022/05/31 01:25:47;;;;;;;0.40;0.40;;;12.00;99.90;11.90;101114.00;;;;5155058;27;20184;-63
2022/05/31 01:29:03;;;;;;;0.40;0.40;;;11.90;99.90;12.10;101110.00;;;;5115593;27;20208;-64
2022/05/31 01:31:45;;;;;;;33.50;10.93;;;11.90;99.90;11.80;101115.00;;;;5114838;27;20257;-63
2022/05/31 01:34:27;;;;;;;0.40;0.40;;;11.90;99.90;12.10;101106.00;;;;5136263;27;20586;-64
2022/05/31 01:36:56;;;;;;;0.60;0.60;;;12.10;99.90;11.40;101093.00;;;;5154885;27;20185;-63
2022/05/31 01:39:45;;;;;;;0.50;0.50;;;11.80;99.90;11.20;101092.00;;;;5155031;27;20189;-64
2022/05/31 01:42:17;;;;;;;0.83;0.83;;;11.60;99.90;11.60;101102.00;;;;5136531;27;20525;-63
2022/05/31 01:44:48;;;;;;;0.40;0.40;;;11.60;99.90;11.50;101063.00;;;;5154447;27;20635;-64
2022/05/31 01:47:18;;;;;;;0.40;0.40;;;11.60;99.90;11.90;101105.00;;;;5136342;27;20600;-64
2022/05/31 01:49:49;;;;;;;0.40;0.40;;;11.80;99.90;11.40;101105.00;;;;5154721;27;20195;-64
2022/05/31 01:52:16;;;;;;;0.60;0.60;;;11.80;99.90;10.80;101093.00;;;;5154824;27;20265;-63
2022/05/31 01:54:42;;;;;;;0.40;0.40;;;11.60;99.90;10.90;101085.00;;;;5136095;27;20191;-64
2022/05/31 01:57:12;;;;;;;0.40;0.40;;;11.30;99.90;11.10;101094.00;;;;5136203;27;20229;-63
2022/05/31 01:59:45;;;;;;;0.30;0.30;;;11.30;99.90;11.10;101094.00;;;;5118563;27;20220;-64
2022/05/31 02:02:15;;;;;;;0.30;0.30;;;11.40;99.90;11.50;101059.00;;;;5154587;27;20283;-64
2022/05/31 02:04:42;;;;;;;0.40;0.40;;;11.50;99.90;11.60;101096.00;;;;5136314;27;20691;-64
2022/05/31 02:07:27;;;;;;;0.40;0.40;;;11.70;99.90;11.70;101092.00;;;;5153989;27;20235;-64
2022/05/31 02:09:54;;;;;;;0.30;0.30;;;11.70;99.90;11.90;101101.00;;;;5135853;27;20239;-64
2022/05/31 02:12:24;;;;;;;0.40;0.40;;;11.80;99.90;12.00;101092.00;;;;5136140;27;20288;-64
2022/05/31 02:14:56;;;;;;;0.40;0.40;;;11.90;99.90;12.10;101093.00;;;;5154210;27;20554;-61
2022/05/31 02:17:22;;;;;;;0.40;0.40;;;11.90;99.90;12.10;101096.00;;;;5154412;27;20270;-61
2022/05/31 02:19:48;;;;;;;0.43;0.43;;;12.00;99.90;12.00;101089.00;;;;5154343;27;20218;-61
2022/05/31 02:22:18;;;;;;;0.50;0.50;;;12.00;99.90;12.00;101101.00;;;;5154193;27;20187;-61
2022/05/31 02:24:44;;;;;;;0.73;0.73;;;11.90;99.90;12.00;101074.00;;;;5154349;27;20212;-61
2022/05/31 02:27:12;;;;;;;0.40;0.40;;;12.00;99.90;12.00;101086.00;;;;5153910;27;20181;-61
2022/05/31 02:29:39;;;;;;;0.40;0.40;;;12.00;99.90;11.90;101088.00;;;;5154109;27;20220;-61
2022/05/31 02:32:09;;;;;;;0.40;0.40;;;12.00;99.90;12.00;101093.00;;;;5153899;27;20563;-61
2022/05/31 02:34:40;;;;;;;0.50;0.50;;;12.00;99.90;11.80;101090.00;;;;5135562;27;20181;-61
2022/05/31 02:37:07;;;;;;;0.40;0.40;;;11.90;99.90;11.50;101082.00;;;;5135455;27;20655;-61
2022/05/31 02:39:32;;;;;;;0.30;0.30;;;11.80;99.90;11.00;101068.00;;;;5154037;27;20640;-61
2022/05/31 02:41:59;;;;;;;0.30;0.30;;;11.60;99.90;10.80;101067.00;;;;5135246;27;20199;-61
2022/05/31 02:44:25;;;;;;;0.40;0.40;;;11.40;99.90;11.30;101081.00;;;;5153981;27;20729;-61
2022/05/31 02:46:51;;;;;;;0.37;0.37;;;11.40;99.90;11.40;101044.00;;;;5153939;27;20241;-61
2022/05/31 02:49:18;;;;;;;0.30;0.30;;;11.50;99.90;11.10;101074.00;;;;5154087;27;20264;-61
2022/05/31 02:51:46;;;;;;;0.30;0.30;;;11.40;99.90;11.50;101065.00;;;;5154004;27;20668;-61
2022/05/31 02:54:16;;;;;;;0.30;0.30;;;11.50;99.90;11.50;101073.00;;;;5135358;27;20281;-61
2022/05/31 02:56:41;;;;;;;0.40;0.40;;;11.50;99.90;11.90;101074.00;;;;5135030;27;20540;-61
2022/05/31 02:59:08;;;;;;;0.30;0.30;;;11.70;99.90;12.00;101041.00;;;;5153836;27;20167;-61
2022/05/31 03:01:37;;;;;;;0.40;0.40;;;11.90;99.90;12.10;101075.00;;;;5153765;27;20212;-61
2022/05/31 03:04:05;;;;;;;0.40;0.40;;;12.00;99.90;11.70;101032.00;;;;5153515;27;20657;-61
2022/05/31 03:06:31;;;;;;;0.40;0.40;;;11.90;99.90;11.20;101065.00;;;;5153701;27;20195;-61
2022/05/31 03:08:58;;;;;;;0.40;0.40;;;11.60;99.90;11.40;101037.00;;;;5153632;27;20243;-61
2022/05/31 03:11:40;;;;;;;0.40;0.40;;;11.50;99.90;11.30;101054.00;;;;5153221;27;20215;-61
2022/05/31 03:14:22;;;;;;;0.30;0.30;;;11.50;99.90;11.50;101041.00;;;;5153506;27;20179;-61
2022/05/31 03:16:53;;;;;;;0.40;0.40;;;11.50;99.90;11.20;101059.00;;;;5135078;27;20224;-61
2022/05/31 03:19:26;;;;;;;0.50;0.50;;;11.50;99.90;11.20;101059.00;;;;5137810;27;20189;-61
2022/05/31 03:22:00;;;;;;;0.60;0.60;;;11.40;99.90;12.10;101056.00;;;;5138815;27;20285;-61
2022/05/31 03:24:37;;;;;;;4.97;4.67;;;11.80;99.90;11.40;101024.00;;;;5157021;27;20280;-61
2022/05/31 03:27:07;;;;;;;0.40;0.40;;;11.70;99.90;11.90;101058.00;;;;5156546;27;20229;-61
2022/05/31 03:29:37;;;;;;;0.40;0.40;;;11.90;99.90;11.80;101015.00;;;;5138798;27;20658;-61
2022/05/31 03:32:05;;;;;;;0.40;0.40;;;11.80;99.90;11.90;101056.00;;;;5138202;27;20211;-61
2022/05/31 03:34:32;;;;;;;0.30;0.30;;;11.80;99.90;11.80;101013.00;;;;5157255;27;20186;-61
2022/05/31 03:36:58;;;;;;;0.40;0.40;;;11.80;99.90;11.80;101055.00;;;;5138328;27;20622;-61
2022/05/31 03:39:24;;;;;;;0.40;0.40;;;11.80;99.90;12.10;101046.00;;;;5136665;27;20646;-62
2022/05/31 03:41:50;;;;;;;0.40;0.40;;;12.00;99.90;11.90;101022.00;;;;5136031;28;20202;-61
2022/05/31 03:44:18;;;;;;;0.50;0.50;;;11.90;99.90;12.10;101051.00;;;;5136126;28;20183;-61
2022/05/31 03:46:47;;;;;;;0.50;0.50;;;12.10;99.90;11.60;101042.00;;;;5136242;28;20185;-61
2022/05/31 03:49:14;;;;;;;0.40;0.40;;;12.00;99.90;11.80;101053.00;;;;5135883;28;20185;-61
2022/05/31 03:51:40;;;;;;;0.40;0.40;;;11.90;99.90;11.80;101048.00;;;;5135918;28;20607;-61
2022/05/31 03:54:06;;;;;;;0.40;0.40;;;11.90;99.90;11.70;101047.00;;;;5135413;28;20191;-62
2022/05/31 03:56:40;;;;;;;0.30;0.30;;;11.90;99.90;11.90;101045.00;;;;5135994;28;20194;-61
2022/05/31 03:59:06;;;;;;;0.50;0.50;;;12.00;99.90;11.70;101004.00;;;;5135769;28;20202;-64
2022/05/31 04:01:32;;;;;;;0.40;0.40;;;11.90;99.90;11.60;101006.00;;;;5135503;28;20183;-64
2022/05/31 04:03:58;;;;;;;0.40;0.40;;;11.80;99.90;12.10;101044.00;;;;5135394;28;20603;-64
2022/05/31 04:06:24;;;;;;;0.40;0.40;;;11.90;99.90;12.10;101043.00;;;;5135493;28;20187;-64
2022/05/31 04:08:50;;;;;;;0.30;0.30;;;12.00;99.90;11.20;101026.00;;;;5135209;27;20180;-64
2022/05/31 04:11:16;;;;;;;0.40;0.40;;;11.80;99.90;11.60;101046.00;;;;5117497;28;20228;-64
2022/05/31 04:13:42;;;;;;;0.47;0.47;;;11.70;99.90;12.00;101010.00;;;;5117376;28;20223;-64
2022/05/31 04:16:15;;;;;;;0.50;0.50;;;11.90;99.90;12.20;101032.00;;;;5135616;28;20880;-64
2022/05/31 04:18:42;;;;;;;0.40;0.40;;;12.00;99.90;12.10;101046.00;;;;5117330;28;20183;-64
2022/05/31 04:21:12;;;;;;;2.97;2.53;;;12.10;99.90;11.70;101037.00;;;;5135511;28;20190;-63
2022/05/31 04:26:23;;;;;;;0.40;0.40;;;12.00;99.90;11.70;101036.00;;;;5135437;28;20629;-63
2022/05/31 04:28:49;;;;;;;0.40;0.40;;;11.90;99.90;11.90;101041.00;;;;5135209;27;20211;-61
2022/05/31 04:31:15;;;;;;;0.40;0.40;;;11.90;99.90;12.00;101041.00;;;;5135285;28;20245;-62
2022/05/31 04:33:41;;;;;;;0.40;0.40;;;12.00;99.90;12.00;101043.00;;;;5135108;28;20191;-61
2022/05/31 04:36:13;;;;;;;0.30;0.30;;;12.10;99.90;12.20;101047.00;;;;5135560;28;20273;-62
2022/05/31 04:38:40;;;;;;;0.40;0.40;;;12.10;99.90;12.40;101005.00;;;;5135397;28;20257;-62
2022/05/31 04:41:07;;;;;;;0.50;0.50;;;12.30;99.90;12.10;101051.00;;;;5116909;28;20183;-62
2022/05/31 04:43:33;;;;;;;0.40;0.40;;;12.30;99.90;11.70;101045.00;;;;5116825;28;20270;-62
2022/05/31 04:46:17;;;;;;;0.40;0.40;;;12.20;99.90;11.90;101050.00;;;;5116770;28;20187;-62
2022/05/31 04:48:44;;;;;;;0.40;0.40;;;12.10;99.90;12.00;101048.00;;;;5099813;28;20230;-61
2022/05/31 04:51:13;;;;;;;0.50;0.50;;;12.10;99.90;12.60;101054.00;;;;5116827;28;20224;-62
2022/05/31 04:53:40;;;;;;;0.40;0.40;;;12.40;99.90;13.00;101062.00;;;;5134383;28;20188;-62
2022/05/31 04:56:13;;;;;;;2.60;2.40;;;12.90;99.90;13.20;101053.00;;;;5116560;28;20175;-62
2022/05/31 04:58:39;;;;;;;0.50;0.50;;;13.00;99.90;12.60;101048.00;;;;5134754;28;20187;-61
2022/05/31 05:01:06;;;;;;;0.40;0.40;;;12.80;99.90;12.90;101047.00;;;;5134843;28;20627;-62
2022/05/31 05:03:36;;;;;;;0.57;0.57;;;12.80;99.90;12.90;101047.00;;;;5134947;28;20199;-61
2022/05/31 05:06:05;;;;;;;1.33;1.33;;;12.90;99.90;12.90;101034.00;;;;5134552;28;20187;-62
2022/05/31 05:08:32;;;;;;;1.80;1.70;;;12.90;99.90;13.00;101047.00;;;;5134685;28;20188;-63
2022/05/31 05:11:03;;;;;;;0.40;0.40;;;13.00;99.90;12.90;101057.00;;;;5134548;27;20211;-61
2022/05/31 05:13:31;;;;;;;11.87;1.07;;;13.00;99.90;12.40;101039.00;;;;5134673;27;20199;-61
2022/05/31 05:15:59;;;;;;;0.50;0.50;;;12.90;99.90;13.10;101062.00;;;;5116102;28;20252;-61
2022/05/31 05:18:26;;;;;;;0.60;0.60;;;13.00;99.90;13.40;101070.00;;;;5134646;28;20188;-61
2022/05/31 05:20:52;;;;;;;0.40;0.40;;;13.30;99.90;13.10;101072.00;;;;5134432;27;20647;-62
2022/05/31 05:23:18;;;;;;;0.37;0.37;;;13.20;99.90;13.50;101074.00;;;;5115905;28;20191;-62
2022/05/31 05:25:49;;;;;;;0.40;0.40;;;13.30;99.90;13.30;101036.00;;;;5134328;28;20191;-62
2022/05/31 05:31:00;;;;;;;0.30;0.30;;;13.70;99.90;14.20;101079.00;;;;5134000;27;20704;-61
2022/05/31 05:33:27;;;;;;;0.30;0.30;;;14.00;99.90;14.80;101091.00;;;;5134422;28;20189;-62
2022/05/31 05:35:53;;;;;;;0.30;0.30;;;14.40;99.90;15.10;101095.00;;;;5133845;28;20186;-63
2022/05/31 05:38:19;;;;;;;0.30;0.30;;;14.60;99.90;15.60;101118.00;;;;5134162;28;20190;-62
2022/05/31 05:40:45;;;;;;;0.30;0.30;;;15.00;99.90;15.30;101090.00;;;;5133541;27;20635;-61
2022/05/31 05:43:11;;;;;;;0.40;0.40;;;15.10;99.90;15.50;101123.00;;;;5115691;28;20195;-64
2022/05/31 05:45:37;;;;;;;0.30;0.30;;;15.00;99.90;15.40;101135.00;;;;5115778;28;20192;-63
2022/05/31 05:48:05;;;;;;;0.30;0.30;;;15.20;99.90;15.80;101131.00;;;;5134141;28;20179;-64
2022/05/31 05:50:34;;;;;;;0.20;0.20;;;15.20;99.90;15.20;101145.00;;;;5133644;28;20188;-63
2022/05/31 05:53:07;;;;;;;0.30;0.30;;;15.20;99.90;15.20;101148.00;;;;5133701;27;20677;-64
2022/05/31 05:55:36;;;;;;;0.33;0.33;;;15.20;99.90;15.10;101149.00;;;;5133978;28;20181;-63
2022/05/31 05:58:03;;;;;;;0.40;0.40;;;14.90;99.90;15.10;101143.00;;;;5133920;28;20274;-61
2022/05/31 06:00:30;;;;;;;0.40;0.40;;;15.00;99.90;15.50;101145.00;;;;5115690;28;20179;-62
2022/05/31 06:03:26;;;;;;;0.47;0.47;;;15.20;99.90;16.00;101124.00;;;;5115634;28;20329;-62
2022/05/31 06:05:53;;;;;;;1.07;1.07;;;15.30;99.90;15.70;101141.00;;;;5115071;28;20636;-62
2022/05/31 06:08:29;;;;;;;0.20;0.20;;;15.60;99.90;16.30;101154.00;;;;5133753;28;20195;-62
2022/05/31 06:11:11;;;;;;;0.77;0.73;;;15.80;99.90;15.90;101180.00;;;;5115567;28;20538;-62
2022/05/31 06:13:53;;;;;;;1.03;1.03;;;15.90;99.90;16.10;101167.00;;;;5115392;28;20257;-61
2022/05/31 06:16:21;;;;;;;0.20;0.20;;;15.80;99.90;16.20;101164.00;;;;5132392;28;20206;-62
2022/05/31 06:19:05;;;;;;;0.20;0.20;;;15.90;99.90;16.70;101157.00;;;;5133985;28;20215;-63
2022/05/31 06:21:31;;;;;;;2.87;0.70;;;16.20;99.90;16.20;101143.00;;;;5115089;28;20189;-63
2022/05/31 06:23:58;;;;;;;0.20;0.20;;;16.20;99.90;17.30;101187.00;;;;5133571;28;20191;-63
2022/05/31 06:26:24;;;;;;;0.30;0.30;;;16.50;99.90;17.00;101161.00;;;;5133388;28;20539;-63
2022/05/31 06:28:50;;;;;;;0.50;0.50;;;16.50;99.90;18.50;101177.00;;;;5133560;28;20190;-63
2022/05/31 06:31:15;;;;;;;0.20;0.20;;;17.40;99.90;18.90;101227.00;;;;5133176;28;20193;-63
2022/05/31 06:33:41;;;;;;;2.78;0.73;;;18.40;99.90;19.00;101193.00;;;;5133144;27;20183;-64
2022/05/31 06:36:07;;;;;;;1.17;1.00;;;18.60;99.90;19.10;101209.00;;;;5133169;28;20696;-63
2022/05/31 06:38:34;;;;;;;0.10;0.10;;;18.80;99.90;21.20;101220.00;;;;5133634;28;20187;-64
2022/05/31 06:41:00;;;;;;;0.10;0.10;;;19.90;99.90;20.30;101247.00;;;;5115031;28;20252;-63
2022/05/31 06:43:26;;;;;;;0.13;0.13;;;19.90;99.90;20.70;101226.00;;;;5133493;28;20183;-61
2022/05/31 06:45:52;;;;;;;0.20;0.20;;;20.20;99.90;22.20;101247.00;;;;5132970;28;20241;-62
2022/05/31 06:48:18;;;;;;;0.75;0.75;;;21.10;99.90;23.70;101233.00;;;;5133084;28;20186;-62
2022/05/31 06:50:43;;;;;;;0.10;0.10;;;22.80;99.90;21.70;101236.00;;;;5133140;28;20250;-63
2022/05/31 06:58:50;;;;;;;0.10;0.10;;;23.90;99.90;23.60;101217.00;;;;5136845;27;20780;-63
2022/05/31 07:01:16;;;;;;;0.28;0.28;;;23.50;99.90;25.10;101203.00;;;;5136569;27;20202;-63
2022/05/31 07:03:41;;;;;;;1.77;1.23;;;23.90;99.90;24.80;101161.00;;;;5136459;28;20183;-64
2022/05/31 07:06:07;;;;;;;0.10;0.10;;;23.80;99.50;24.90;101173.00;;;;5136460;28;20187;-63
2022/05/31 07:08:33;;;;;;;0.10;0.10;;;24.10;99.20;24.10;101186.00;;;;5136534;28;20638;-63
2022/05/31 07:11:02;;;;;;;0.10;0.10;;;24.40;97.30;23.50;101190.00;;;;5136840;28;20529;-63
2022/05/31 07:13:28;;;;;;;0.10;0.10;;;23.50;98.10;24.90;101164.00;;;;5136483;28;20205;-63
2022/05/31 07:15:59;;;;;;;0.10;0.10;;;23.80;98.10;25.00;101179.00;;;;5136550;28;20698;-63
2022/05/31 07:18:25;;;;;;;0.50;0.50;;;24.10;98.00;22.60;101195.00;;;;5136090;27;20542;-63
2022/05/31 07:20:51;;;;;;;0.10;0.10;;;23.10;97.80;24.10;101195.00;;;;5136647;28;20188;-63
2022/05/31 07:23:16;;;;;;;0.10;0.10;;;23.40;98.50;21.90;101209.00;;;;5136660;28;20191;-63
2022/05/31 07:25:43;;;;;;;0.20;0.20;;;22.50;98.30;23.30;101169.00;;;;5136297;28;20187;-63
2022/05/31 07:28:08;;;;;;;0.10;0.10;;;22.80;99.10;23.40;101205.00;;;;5136213;28;20202;-64
2022/05/31 07:30:34;;;;;;;0.10;0.10;;;22.80;99.40;21.80;101213.00;;;;5136354;28;20183;-63
2022/05/31 07:33:00;;;;;;;0.73;0.73;;;22.40;99.20;22.10;101219.00;;;;5135709;28;20225;-63
2022/05/31 07:35:27;;;;;;;0.73;0.73;;;21.90;99.90;23.80;101201.00;;;;5136482;28;20183;-63
2022/05/31 07:37:53;;;;;;;0.10;0.10;;;22.80;99.90;22.00;101215.00;;;;5135957;28;20199;-63
2022/05/31 07:40:19;;;;;;;0.10;0.10;;;22.60;99.50;25.20;101164.00;;;;5136225;28;20183;-63
2022/05/31 07:42:47;;;;;;;0.70;0.70;;;23.80;99.50;27.70;101153.00;;;;5135865;28;20203;-63
2022/05/31 07:45:14;;;;;;;0.80;0.75;;;26.00;96.70;26.90;101179.00;;;;5135977;28;20638;-64
2022/05/31 07:47:39;;;;;;;0.55;0.55;;;26.50;94.90;27.80;101170.00;;;;5135688;27;20184;-63
2022/05/31 07:50:06;;;;;;;0.10;0.10;;;26.80;93.60;26.80;101182.00;;;;5117623;28;20243;-63
2022/05/31 07:52:33;;;;;;;0.15;0.15;;;27.00;92.80;21.50;101197.00;;;;5136288;28;20264;-63
2022/05/31 07:54:59;;;;;;;0.10;0.10;;;23.30;95.20;21.30;101202.00;;;;5135942;28;20198;-63
2022/05/31 08:00:09;;;;;;;0.10;0.10;;;21.30;99.10;22.00;101210.00;;;;5120181;28;20280;-63
2022/05/31 08:02:35;;;;;;;0.10;0.10;;;21.80;99.00;21.80;101177.00;;;;5135031;27;20567;-63
2022/05/31 08:05:04;;;;;;;0.15;0.15;;;21.50;99.80;25.20;101185.00;;;;5135154;27;20183;-63
2022/05/31 08:07:30;;;;;;;0.10;0.10;;;23.70;98.20;22.90;101197.00;;;;5135730;28;20187;-63
2022/05/31 08:09:56;;;;;;;0.10;0.10;;;23.60;96.20;24.70;101193.00;;;;5135575;27;20172;-63
2022/05/31 08:12:22;;;;;;;0.10;0.10;;;23.90;98.00;24.50;101187.00;;;;5135416;28;20207;-64
2022/05/31 08:14:50;;;;;;;0.10;0.10;;;24.50;94.80;23.60;101195.00;;;;5135583;28;20695;-63
2022/05/31 08:17:17;;;;;;;0.60;0.60;;;24.00;95.30;20.80;101197.00;;;;5135421;28;20187;-63
2022/05/31 08:19:43;;;;;;;0.52;0.52;;;22.60;94.80;19.10;101228.00;;;;5135452;28;20214;-62
2022/05/31 08:22:09;;;;;;;0.10;0.10;;;20.70;95.80;21.70;101202.00;;;;5116966;28;20709;-62
2022/05/31 08:24:36;;;;;;;0.10;0.10;;;21.30;97.10;20.40;101211.00;;;;5135352;28;20211;-62
2022/05/31 08:27:02;;;;;;;1.00;0.57;;;21.10;95.50;20.40;101213.00;;;;5135492;28;20230;-63
2022/05/31 08:29:28;;;;;;;0.15;0.15;;;20.60;97.10;23.20;101191.00;;;;5116816;28;20184;-63
2022/05/31 08:31:58;;;;;;;1.75;1.65;;;21.90;97.20;20.40;101173.00;;;;5135320;28;20221;-64
2022/05/31 08:34:28;;;;;;;0.20;0.20;;;21.40;95.90;21.50;101195.00;;;;5135110;28;20197;-62
2022/05/31 08:36:54;;;;;;;1.05;0.82;;;21.80;96.40;19.90;101216.00;;;;5135524;28;20187;-62
2022/05/31 08:39:20;;;;;;;0.20;0.20;;;20.70;96.10;21.40;101200.00;;;;5135304;28;20695;-62
2022/05/31 08:41:50;;;;;;;0.20;0.20;;;21.10;96.10;24.40;101151.00;;;;5135104;27;20264;-63
2022/05/31 08:44:18;;;;;;;0.30;0.30;;;22.90;96.10;20.90;101188.00;;;;5134691;28;20179;-62
2022/05/31 08:46:59;;;;;;;0.20;0.20;;;22.20;94.10;25.00;101172.00;;;;5135511;28;20236;-63
2022/05/31 08:52:47;;;;;;;0.10;0.10;;;23.70;91.20;20.40;101194.00;;;;5135203;28;20247;-62
2022/05/31 08:58:39;;;;;;;0.13;0.13;;;20.50;95.10;24.20;101154.00;;;;5134838;28;20256;-62
2022/05/31 09:01:06;;;;;;;0.35;0.35;;;22.60;94.20;23.30;101175.00;;;;5081987;28;20548;-62
2022/05/31 09:03:46;;;;;;;0.10;0.10;;;23.40;92.60;24.00;101170.00;;;;5134662;27;20673;-62
2022/05/31 09:06:17;;;;;;;0.10;0.10;;;23.80;92.00;24.10;101176.00;;;;5116250;28;20183;-62
2022/05/31 09:08:44;;;;;;;0.20;0.20;;;23.70;91.80;22.90;101177.00;;;;5134499;27;20614;-62
2022/05/31 09:11:44;;;;;;;0.10;0.10;;;23.30;91.30;23.80;101139.00;;;;5116353;28;20278;-62
2022/05/31 09:14:45;;;;;;;0.50;0.50;;;23.00;92.30;22.40;101179.00;;;;5129084;28;20218;-62
2022/05/31 09:18:08;;;;;;;0.30;0.30;;;22.20;91.90;22.80;101173.00;;;;5133420;27;20741;-62
2022/05/31 09:20:59;;;;;;;0.10;0.10;;;22.20;92.10;23.90;101165.00;;;;5130724;28;20677;-63
2022/05/31 09:23:34;;;;;;;0.10;0.10;;;23.00;92.20;24.20;101169.00;;;;5134385;28;20247;-63
2022/05/31 09:26:28;;;;;;;0.10;0.10;;;23.60;91.60;25.70;101159.00;;;;5115833;28;20194;-64
2022/05/31 09:29:16;;;;;;;0.15;0.15;;;24.50;91.30;24.90;101153.00;;;;5134308;28;20183;-63
2022/05/31 09:31:48;;;;;;;0.20;0.20;;;25.20;88.10;24.30;101168.00;;;;5134183;28;20643;-63
2022/05/31 09:34:32;;;;;;;0.77;0.73;;;24.10;90.60;25.70;101162.00;;;;5134281;27;20222;-63
2022/05/31 09:37:48;;;;;;;1.58;0.45;;;25.00;89.00;26.00;101157.00;;;;5134647;28;20210;-63
2022/05/31 09:40:49;;;;;;;0.70;0.70;;;25.40;87.60;20.20;101183.00;;;;5058598;27;20298;-63
2022/05/31 09:43:41;;;;;;;0.65;0.65;;;21.90;90.30;19.60;101188.00;;;;5133877;28;20212;-63
2022/05/31 09:46:16;;;;;;;0.75;0.75;;;20.70;91.20;19.50;101179.00;;;;5115593;28;20187;-65
2022/05/31 09:48:50;;;;;;;0.20;0.20;;;19.50;92.70;19.90;101196.00;;;;5116074;28;20231;-62
2022/05/31 09:51:40;;;;;;;0.85;0.85;;;19.80;93.10;20.50;101196.00;;;;5115581;28;20188;-64
2022/05/31 09:57:06;;;;;;;1.05;1.05;;;20.80;92.40;20.70;101184.00;;;;5091989;28;20342;-62
2022/05/31 09:59:59;;;;;;;0.10;0.10;;;20.50;92.50;20.10;101192.00;;;;5093027;28;20207;-63
2022/05/31 10:02:32;;;;;;;0.10;0.10;;;20.10;92.40;20.50;101196.00;;;;5074554;28;20299;-62
2022/05/31 10:05:19;;;;;;;1.52;1.40;;;20.60;92.90;20.90;101200.00;;;;5092919;28;20188;-62
2022/05/31 10:07:46;;;;;;;0.52;0.52;;;21.00;92.60;20.00;101187.00;;;;5093040;28;20216;-64
2022/05/31 10:10:35;;;;;;;0.43;0.43;;;20.00;93.20;20.60;101188.00;;;;5092615;28;20252;-64
2022/05/31 10:13:09;;;;;;;0.10;0.10;;;19.80;93.60;22.50;101181.00;;;;5091520;28;20545;-62
2022/05/31 10:15:44;;;;;;;0.20;0.20;;;21.30;93.20;22.40;101174.00;;;;5092486;28;20215;-62
2022/05/31 10:18:33;;;;;;;1.17;1.13;;;21.70;92.80;24.60;101160.00;;;;5093022;28;20184;-63
2022/05/31 10:33:24;;;;;;;0.10;0.10;;;22.80;83.80;22.30;101164.00;;;;5192878;27;20494;-64
2022/05/31 10:36:17;;;;;;;0.40;0.40;;;22.10;84.70;20.00;101146.00;;;;5171656;27;20193;-63
2022/05/31 10:38:46;;;;;;;1.17;0.50;;;21.10;83.60;21.00;101174.00;;;;5153277;27;20186;-63
2022/05/31 10:41:29;;;;;;;0.30;0.30;;;20.90;86.30;20.40;101183.00;;;;5171345;27;20188;-63
2022/05/31 10:44:36;;;;;;;0.75;0.52;;;20.50;86.20;21.20;101178.00;;;;5171658;27;20193;-64
2022/05/31 10:47:24;;;;;;;0.98;0.98;;;20.60;88.00;20.00;101159.00;;;;5153151;27;20178;-65
2022/05/31 10:49:50;;;;;;;0.20;0.20;;;20.10;88.10;21.50;101170.00;;;;5171605;27;20178;-64
2022/05/31 10:52:50;;;;;;;0.15;0.15;;;20.70;88.80;21.80;101168.00;;;;5152924;27;20212;-64
2022/05/31 10:56:11;;;;;;;0.17;0.17;;;21.20;87.30;22.00;101173.00;;;;5171170;27;20190;-63
2022/05/31 10:58:59;;;;;;;0.20;0.20;;;21.60;87.40;19.10;101152.00;;;;5152895;27;20269;-65
2022/05/31 11:01:51;;;;;;;0.10;0.10;;;20.10;88.30;20.60;101181.00;;;;5152681;27;20189;-65
2022/05/31 11:05:14;;;;;;;8.50;2.22;;;20.10;90.70;20.00;101177.00;;;;5095337;27;1267328;-63
2022/05/31 11:14:01;;;;;;;0.10;0.10;;;21.60;88.70;22.20;101172.00;;;;5130831;28;20604;-62
2022/05/31 11:16:45;;;;;;;0.10;0.10;;;21.80;89.40;23.90;101164.00;;;;5131169;27;20167;-63
2022/05/31 11:19:30;;;;;;;0.10;0.10;;;23.00;86.30;24.30;101159.00;;;;5130939;27;20221;-63
2022/05/31 11:22:53;;;;;;;0.10;0.10;;;23.80;83.00;21.00;101180.00;;;;5129444;28;20187;-62
2022/05/31 11:25:37;;;;;;;0.10;0.10;;;22.50;80.50;22.90;101169.00;;;;5067273;28;20178;-63
2022/05/31 11:28:50;;;;;;;0.10;0.10;;;22.20;82.40;21.90;101168.00;;;;5129333;28;20617;-63
2022/05/31 11:31:55;;;;;;;0.20;0.20;;;21.50;80.90;22.20;101173.00;;;;5129266;28;20746;-63
2022/05/31 11:35:03;;;;;;;0.50;0.50;;;21.80;81.50;22.10;101170.00;;;;5117078;28;20189;-63
2022/05/31 11:37:56;;;;;;;0.10;0.10;;;21.70;80.60;23.30;101169.00;;;;5130636;27;20175;-63
2022/05/31 11:40:56;;;;;;;0.95;0.80;;;22.40;80.90;20.60;101179.00;;;;5129862;27;20184;-62
2022/05/31 11:43:56;;;;;;;0.10;0.10;;;21.60;77.00;21.50;101180.00;;;;5122044;28;20522;-62
2022/05/31 11:46:43;;;;;;;0.10;0.10;;;21.00;79.90;22.60;101155.00;;;;5115519;28;20533;-63
2022/05/31 11:49:27;;;;;;;1.25;0.55;;;21.80;79.90;23.20;101159.00;;;;5115287;28;20187;-63
2022/05/31 11:52:34;;;;;;;0.30;0.30;;;22.30;78.40;23.00;101163.00;;;;5116783;28;20210;-62
2022/05/31 11:55:58;;;;;;;0.73;0.73;;;22.70;77.80;22.40;101178.00;;;;5087197;28;20250;-62